W. Red Harris — WDE5778 — position and weather

sailwx.info

Track history (hours):
 
Tides and Currents Weather Stations Pressure Air Temp Water Temp Dewpoint Dewpoint Depression Visibility Wind Speed Wind Dir Waves Ship Positions

W. Red Harris

Owner: Marquette Transportation Company, LLC, Paducah, KY. More information available from US FCC via Universal Licensing System and Coast Guard Vessel Documentation Center.

Last reported at 2018-Apr-09 00:19 UTC. Time now 2018-Apr-23 05:44 UTC.
Position N 32°44' W 091°04'.
Warning: this ship's position is 14 days out of date.

Length 39 m; draft 2.7 m.

Type: Towing. MMSI: 367371510.

Date/timePositionNaut miles runAvg speedWind from/ knotsBaromVisibWave heightAir tempDewpointWater temp
2018-Apr-09 00:19N 32°44' W 091°04'5 3.6
2018-Apr-08 22:54N 32°39' W 091°07'3 5.2
2018-Apr-08 22:24N 32°37' W 091°09'2 4.7
2018-Apr-08 22:00N 32°35' W 091°08'2 4.7
2018-Apr-08 21:30N 32°33' W 091°07'3 5.1
2018-Apr-08 21:00N 32°31' W 091°07'2 4.4
2018-Apr-08 20:30N 32°29' W 091°06'3 5.1
2018-Apr-08 20:00N 32°27' W 091°04'3 5.1
2018-Apr-08 19:30N 32°26' W 091°01'2 4.6
2018-Apr-08 19:00N 32°24' W 090°60'2 4.5
2018-Apr-08 18:30N 32°22' W 091°00'2 4.6
2018-Apr-08 18:00N 32°21' W 090°58'2 4.8
2018-Apr-08 17:30N 32°20' W 090°55'2 3.4
2018-Apr-08 17:00N 32°19' W 090°55'2 4.7
2018-Apr-08 16:30N 32°17' W 090°57'2 3.8
2018-Apr-08 16:00N 32°16' W 090°58'2 4.1
2018-Apr-08 15:30N 32°14' W 090°59'2 4.6
2018-Apr-08 15:00N 32°11' W 090°60'2 4.1
2018-Apr-08 14:30N 32°09' W 090°60'2 4.0
2018-Apr-08 14:00N 32°08' W 091°01'2 3.0
2018-Apr-08 13:30N 32°07' W 091°03'3 5.7
2018-Apr-08 13:00N 32°08' W 091°06'6 4.0
2018-Apr-08 11:35N 32°03' W 091°04'2 4.7
2018-Apr-08 11:09N 32°01' W 091°05'  
Track history (hours):
 
Tides and Currents Weather Stations Pressure Air Temp Water Temp Dewpoint Dewpoint Depression Visibility Wind Speed Wind Dir Waves Ship Positions

W. Red Harris

Owner: Marquette Transportation Company, LLC, Paducah, KY. More information available from US FCC via Universal Licensing System and Coast Guard Vessel Documentation Center.

Last reported at 2018-Apr-09 00:19 UTC. Time now 2018-Apr-23 05:44 UTC.
Position N 32°44' W 091°04'.
Warning: this ship's position is 14 days out of date.

Length 39 m; draft 2.7 m.

Type: Towing. MMSI: 367371510.

Date/timePositionNaut miles runAvg speedWind from/ knotsBaromVisibWave heightAir tempDewpointWater temp
2018-Apr-09 00:19N 32°44' W 091°04'5 3.6
2018-Apr-08 22:54N 32°39' W 091°07'3 5.2
2018-Apr-08 22:24N 32°37' W 091°09'2 4.7
2018-Apr-08 22:00N 32°35' W 091°08'2 4.7
2018-Apr-08 21:30N 32°33' W 091°07'3 5.1
2018-Apr-08 21:00N 32°31' W 091°07'2 4.4
2018-Apr-08 20:30N 32°29' W 091°06'3 5.1
2018-Apr-08 20:00N 32°27' W 091°04'3 5.1
2018-Apr-08 19:30N 32°26' W 091°01'2 4.6
2018-Apr-08 19:00N 32°24' W 090°60'2 4.5
2018-Apr-08 18:30N 32°22' W 091°00'2 4.6
2018-Apr-08 18:00N 32°21' W 090°58'2 4.8
2018-Apr-08 17:30N 32°20' W 090°55'2 3.4
2018-Apr-08 17:00N 32°19' W 090°55'2 4.7
2018-Apr-08 16:30N 32°17' W 090°57'2 3.8
2018-Apr-08 16:00N 32°16' W 090°58'2 4.1
2018-Apr-08 15:30N 32°14' W 090°59'2 4.6
2018-Apr-08 15:00N 32°11' W 090°60'2 4.1
2018-Apr-08 14:30N 32°09' W 090°60'2 4.0
2018-Apr-08 14:00N 32°08' W 091°01'2 3.0
2018-Apr-08 13:30N 32°07' W 091°03'3 5.7
2018-Apr-08 13:00N 32°08' W 091°06'6 4.0
2018-Apr-08 11:35N 32°03' W 091°04'2 4.7
2018-Apr-08 11:09N 32°01' W 091°05'  

Dump ship's entire track history